Etusivu
METAR-TAF:

METAR-TAF

Lentoasemat :

Harbin, Kiina

Leveyspiiri: 45-45N, Pituuspiiri: 126-46E, korkeus merenpinnasta: 143 m

Tämänhetkinen sää

Tämä raportti tehtiin 1 tunti ja 4 minuuttia sitten, kello 07.00 UTC
Tuuli 12 kn pohjoisen/luoteesta, vaihdellen lännen/luoteen ja pohjoisen välillä
Lämpötila 12°C
Kosteus 15%
Ilmanpaine 1014 hPa
Näkyvyys 10 km tai enemmän
ei pilviä alle 1500 m:ssä eikä cumulonimbus-pilviä

METAR: ZYHB 240700Z 33006MPS 300V010 CAVOK 12/M14 Q1014 NOSIG

Aika: 16:04 (08:04 UTC)

Sääennuste

Tämä raportti tehtiin 5 tuntia ja 0 minuuttia sitten, kello 03.04 UTC
Ennuste voimassa 24. päivästä klo 06 UTC - 25. päivään klo 06 UTC
Tuuli 16 kn pohjoisen/luoteesta puuskistuen 25 kn:hen
Näkyvyys: 6000 m
Hajanaisia pilviä 3300 ft:n korkeudessa
Tulossa
24. päivästä klo 10 UTC - 24. päivään klo 12 UTC
Tuuli 6 kn pohjoisen/luoteesta

TAF: ZYHB 240304Z 2406/2506 33008G13MPS 6000 SCT033 TX13/2406Z TN01/2421Z BECMG 2410/2412 34003MPS

Säähavainnot ja -ennusteet yli 4000 lentoasemalta (METAR- ja TAF-raportit).

Käytössä olevat sääasemat on merkitty karttaan keltaisilla ja punaisilla pisteillä.

Aseta hiiri pisteen päälle nähdäksesi sääaseman nimen.

Klikkaa sitten nähdäksesi säähavainnot ja -ennusteet.

Kartan vaihtaminen: klikkaa mustalla rastilla varustettuja vihreitä pisteitä, niin voit zoomata sisään; viivalla varustettua vihreää pistettä, niin voit zoomata ulos tai vihreitä nuolia, niin pääset viereisille kartoille.


METAR-TAF: